Time;durP1;ratioP1;P1;durP2;ratioP2;P2;SDS_P1;SDS_P2;PMS_P1;PMS_P2;Temp;Humidity;BMP_temperature;BMP_pressure;BME280_temperature;BME280_humidity;BME280_pressure;Samples;Min_cycle;Max_cycle;Signal;HPM_P1;HPM_P2
2022/06/12 00:01:07;;;;;;;9.00;8.08;;;;;;;15.68;73.08;101185.90;1695984;82;25946;-84
2022/06/12 00:03:35;;;;;;;23.57;8.80;;;;;;;15.67;73.27;101186.11;1711090;82;26392;-84
2022/06/12 00:06:03;;;;;;;15.35;10.90;;;;;;;15.63;73.30;101184.86;1696363;83;26575;-84
2022/06/12 00:08:33;;;;;;;16.20;10.70;;;;;;;15.62;73.92;101189.94;1696513;83;26034;-84
2022/06/12 00:11:03;;;;;;;15.85;10.43;;;;;;;15.58;73.64;101184.12;1696926;83;28297;-84
2022/06/12 00:13:38;;;;;;;15.40;11.33;;;;;;;15.56;73.60;101184.02;1696595;82;25791;-83
2022/06/12 00:16:06;;;;;;;12.90;10.40;;;;;;;15.54;73.80;101185.58;1708235;82;25820;-84
2022/06/12 00:18:34;;;;;;;9.28;8.28;;;;;;;15.53;74.01;101180.36;1718716;83;25765;-84
2022/06/12 00:21:14;;;;;;;9.53;8.53;;;;;;;15.53;74.12;101175.80;1750720;81;25924;-83
2022/06/12 00:23:57;;;;;;;11.78;8.98;;;;;;;15.52;74.39;101174.15;1738865;81;28788;-84
2022/06/12 00:26:32;;;;;;;9.68;7.62;;;;;;;15.50;74.22;101180.27;1741560;81;25783;-83
2022/06/12 00:29:06;;;;;;;9.90;8.35;;;;;;;15.41;73.97;101172.84;1753934;81;25350;-85
2022/06/12 00:31:38;;;;;;;10.50;8.35;;;;;;;15.35;74.18;101178.23;1741464;81;27175;-84
2022/06/12 00:34:05;;;;;;;11.73;8.63;;;;;;;15.28;74.26;101178.21;1741796;81;26032;-84
2022/06/12 00:36:33;;;;;;;13.55;9.70;;;;;;;15.27;74.73;101180.58;1754244;81;27614;-84
2022/06/12 00:39:00;;;;;;;10.45;9.23;;;;;;;15.23;74.52;101178.48;1754063;81;25882;-84
2022/06/12 00:41:26;;;;;;;13.05;9.93;;;;;;;15.19;74.40;101179.42;1754059;81;25725;-85
2022/06/12 00:43:53;;;;;;;15.85;9.93;;;;;;;15.16;74.43;101177.66;1754231;81;26323;-84
2022/06/12 00:46:46;;;;;;;11.10;9.85;;;;;;;15.12;74.31;101176.40;1744108;81;25916;-84
2022/06/12 00:49:33;;;;;;;12.40;8.70;;;;;;;15.10;74.70;101180.62;1752143;81;27444;-84
2022/06/12 00:52:11;;;;;;;12.30;9.00;;;;;;;15.06;74.59;101171.27;1739939;81;26193;-83
2022/06/12 00:54:40;;;;;;;11.40;9.65;;;;;;;15.00;74.43;101177.98;1724414;81;25909;-84
2022/06/12 00:57:08;;;;;;;11.95;9.60;;;;;;;14.96;74.67;101172.17;1753988;81;25773;-85
2022/06/12 00:59:40;;;;;;;12.15;9.68;;;;;;;14.97;74.69;101179.22;1754421;81;25824;-84
2022/06/12 01:02:11;;;;;;;14.98;10.28;;;;;;;14.95;74.65;101172.39;1753428;81;28320;-84
2022/06/12 01:07:29;;;;;;;14.03;11.03;;;;;;;14.91;75.10;101170.59;1744603;81;26460;-85
2022/06/12 01:10:01;;;;;;;11.70;9.90;;;;;;;14.87;75.10;101170.67;1754093;81;25960;-84
2022/06/12 01:12:32;;;;;;;15.88;10.13;;;;;;;14.87;75.32;101173.88;1731537;81;25968;-83
2022/06/12 01:15:04;;;;;;;13.35;9.90;;;;;;;14.87;75.32;101170.67;1754968;81;27420;-85
2022/06/12 01:17:31;;;;;;;14.15;9.53;;;;;;;14.86;75.31;101166.33;1742272;81;26128;-84
2022/06/12 01:20:03;;;;;;;16.97;10.00;;;;;;;14.86;75.50;101164.98;1740264;81;26488;-84
2022/06/12 01:22:38;;;;;;;17.17;10.35;;;;;;;14.88;75.70;101166.97;1744613;81;25828;-84
2022/06/12 01:25:55;;;;;;;15.83;11.97;;;;;;;14.88;75.81;101162.08;1746582;81;25783;-84
2022/06/12 01:28:40;;;;;;;25.92;20.27;;;;;;;14.89;75.78;101154.28;1749281;81;27467;-85
2022/06/12 01:31:36;;;;;;;21.75;18.25;;;;;;;14.83;75.77;101158.63;1741239;81;25883;-84
2022/06/12 01:34:42;;;;;;;20.43;16.80;;;;;;;14.78;75.70;101151.64;1662649;82;25871;-84
2022/06/12 01:37:35;;;;;;;18.32;15.30;;;;;;;14.68;75.38;101149.33;1736047;81;26591;-84
2022/06/12 01:40:22;;;;;;;21.02;15.60;;;;;;;14.58;75.37;101151.54;1721311;81;25747;-84
2022/06/12 01:43:03;;;;;;;23.32;14.55;;;;;;;14.53;75.62;101154.53;1720250;83;27473;-84
2022/06/12 01:45:56;;;;;;;21.02;14.75;;;;;;;14.49;75.78;101158.66;1718929;82;25842;-84
2022/06/12 01:48:49;;;;;;;20.08;13.93;;;;;;;14.44;75.90;101151.67;1694226;83;25887;-85
2022/06/12 01:51:29;;;;;;;17.80;14.25;;;;;;;14.40;76.16;101152.59;1709187;83;25998;-84
2022/06/12 01:54:33;;;;;;;18.25;14.15;;;;;;;14.36;76.02;101155.87;1751049;80;25875;-84
2022/06/12 01:57:27;;;;;;;17.75;12.78;;;;;;;14.33;75.96;101153.56;1739499;80;27634;-85
2022/06/12 02:00:02;;;;;;;18.85;14.05;;;;;;;14.30;76.17;101150.78;1743519;80;26139;-84
2022/06/12 02:02:50;;;;;;;16.80;12.73;;;;;;;14.28;76.25;101143.38;1685508;82;25795;-85
2022/06/12 02:05:25;;;;;;;19.02;12.68;;;;;;;14.24;76.04;101143.42;1695855;82;25832;-85
2022/06/12 02:08:06;;;;;;;15.10;11.68;;;;;;;14.20;76.05;101147.55;1719034;83;25860;-85
2022/06/12 02:10:39;;;;;;;;;;;;;;;14.18;76.05;101150.14;1752084;81;27438;-85
2022/06/12 02:13:21;;;;;;;14.70;11.80;;;;;;;14.16;76.25;101145.44;1740848;81;25903;-85
2022/06/12 02:15:53;;;;;;;19.60;12.45;;;;;;;14.14;76.59;101154.23;1747773;81;25851;-84
2022/06/12 02:18:37;;;;;;;18.05;11.78;;;;;;;14.14;76.69;101142.95;1741672;81;26387;-84
2022/06/12 02:21:26;;;;;;;14.55;11.10;;;;;;;14.14;76.59;101142.11;1744818;81;25929;-85
2022/06/12 02:24:06;;;;;;;13.13;10.90;;;;;;;14.13;76.78;101141.30;1734805;81;28323;-85
2022/06/12 02:26:46;;;;;;;16.32;10.95;;;;;;;14.15;76.86;101145.14;1750529;81;26538;-84
2022/06/12 02:29:23;;;;;;;21.73;13.78;;;;;;;14.15;76.84;101140.59;1742700;81;26491;-84
2022/06/12 02:31:53;;;;;;;14.63;11.00;;;;;;;14.14;76.92;101138.06;1711281;81;25828;-84
2022/06/12 02:34:27;;;;;;;21.57;12.18;;;;;;;14.14;76.96;101140.25;1744812;81;26471;-84
2022/06/12 02:37:05;;;;;;;15.98;12.13;;;;;;;14.15;77.07;101141.94;1754541;81;28226;-84
2022/06/12 02:39:40;;;;;;;16.55;12.47;;;;;;;14.17;77.20;101143.08;1750962;81;25971;-84
2022/06/12 02:42:12;;;;;;;17.45;13.28;;;;;;;14.21;77.75;101139.80;1750173;81;25849;-84
2022/06/12 02:44:56;;;;;;;18.02;12.00;;;;;;;14.26;78.28;101138.70;1729565;81;25784;-84
2022/06/12 02:47:27;;;;;;;15.95;11.33;;;;;;;14.31;78.51;101144.34;1723904;81;26223;-84
2022/06/12 02:49:56;;;;;;;16.70;11.12;;;;;;;14.33;78.36;101148.17;1748898;81;27450;-84
2022/06/12 02:52:49;;;;;;;15.03;12.13;;;;;;;14.34;78.13;101149.85;1753584;81;25959;-84
2022/06/12 02:55:57;;;;;;;18.50;10.23;;;;;;;14.33;78.37;101143.62;1749577;81;25752;-84
2022/06/12 02:58:50;;;;;;;14.50;9.53;;;;;;;14.34;78.27;101152.05;1744891;81;25813;-84
2022/06/12 03:01:22;;;;;;;17.67;9.13;;;;;;;14.33;78.30;101152.22;1754748;81;25729;-84
2022/06/12 03:03:57;;;;;;;11.88;9.40;;;;;;;14.32;78.31;101152.76;1747155;81;27596;-84
2022/06/12 03:06:29;;;;;;;16.93;9.20;;;;;;;14.29;78.33;101150.44;1754111;81;25869;-84
2022/06/12 03:08:58;;;;;;;13.22;10.10;;;;;;;14.29;78.33;101157.69;1747813;81;25798;-83
2022/06/12 03:11:33;;;;;;;14.50;9.85;;;;;;;14.27;78.46;101152.47;1750346;81;25783;-84
2022/06/12 03:14:00;;;;;;;14.45;10.50;;;;;;;14.22;78.35;101154.91;1751110;81;25928;-84
2022/06/12 03:16:31;;;;;;;14.38;10.43;;;;;;;14.19;78.33;101154.48;1754596;81;27459;-83
2022/06/12 03:19:06;;;;;;;14.00;9.83;;;;;;;14.18;78.41;101155.53;1745888;81;26105;-84
2022/06/12 03:22:10;;;;;;;13.35;9.83;;;;;;;14.17;78.31;101156.55;1746777;81;25830;-84
2022/06/12 03:24:57;;;;;;;13.00;9.48;;;;;;;14.17;78.38;101143.91;1741366;81;25958;-84
2022/06/12 03:27:38;;;;;;;11.57;10.03;;;;;;;14.18;78.47;101144.75;1741697;80;25999;-84
2022/06/12 03:30:14;;;;;;;;;;;;;;;14.25;78.67;101142.91;1747575;81;27476;-84
2022/06/12 03:33:16;;;;;;;16.93;12.00;;;;;;;14.33;79.20;101139.58;1737206;81;26314;-84
2022/06/12 03:36:06;;;;;;;16.35;11.93;;;;;;;14.42;79.21;101130.31;1721785;81;25907;-83
2022/06/12 03:39:12;;;;;;;21.48;12.68;;;;;;;14.57;79.59;101136.41;1714055;81;25778;-84
2022/06/12 03:41:52;;;;;;;15.08;12.63;;;;;;;14.71;80.15;101137.83;1739605;81;25399;-84
2022/06/12 03:44:34;;;;;;;17.32;13.68;;;;;;;14.82;80.85;101135.37;1741903;81;27475;-84
2022/06/12 03:47:08;;;;;;;20.05;13.48;;;;;;;14.86;81.04;101145.27;1741906;81;25902;-84
2022/06/12 03:49:49;;;;;;;18.17;13.60;;;;;;;14.93;81.52;101144.75;1749145;81;26681;-84
2022/06/12 03:52:30;;;;;;;20.37;12.68;;;;;;;14.99;81.24;101143.97;1741954;81;34930;-84
2022/06/12 03:55:18;;;;;;;;;;;;;;;15.03;81.30;101142.02;1744826;81;26022;-84
2022/06/12 03:57:56;;;;;;;17.67;13.53;;;;;;;15.08;81.95;101146.78;1737103;81;27616;-84
2022/06/12 04:00:44;;;;;;;16.00;13.30;;;;;;;15.11;81.90;101151.27;1733110;81;26430;-84
2022/06/12 04:03:25;;;;;;;17.67;14.15;;;;;;;15.20;82.38;101151.92;1741838;81;25824;-84
2022/06/12 04:05:59;;;;;;;17.62;14.93;;;;;;;15.30;82.74;101153.70;1742773;81;25810;-85
2022/06/12 04:08:43;;;;;;;20.97;17.37;;;;;;;15.44;83.49;101150.02;1739902;81;25751;-85
2022/06/12 04:11:14;;;;;;;21.52;17.95;;;;;;;15.58;84.15;101143.62;1689505;83;28283;-84
2022/06/12 04:13:43;;;;;;;22.07;19.10;;;;;;;15.77;84.76;101140.61;1733345;81;25702;-84
2022/06/12 04:16:30;;;;;;;21.00;18.80;;;;;;;15.94;85.17;101142.70;1744400;81;26562;-84
2022/06/12 04:18:57;;;;;;;21.90;17.65;;;;;;;16.10;85.19;101146.31;1734373;81;25871;-85
2022/06/12 04:21:47;;;;;;;20.68;18.37;;;;;;;16.27;85.38;101152.66;1744221;81;25739;-84
2022/06/12 04:24:21;;;;;;;18.52;16.07;;;;;;;16.39;84.95;101154.50;1735150;81;27975;-85
2022/06/12 04:26:59;;;;;;;17.92;16.02;;;;;;;16.53;84.77;101147.23;1732984;81;26437;-85
2022/06/12 04:29:33;;;;;;;18.45;16.55;;;;;;;16.68;84.53;101149.97;1724345;81;25742;-85
2022/06/12 04:32:04;;;;;;;18.35;16.45;;;;;;;16.83;84.74;101150.54;1742170;82;26406;-85
2022/06/12 04:34:35;;;;;;;20.50;15.83;;;;;;;16.96;84.43;101146.95;1749386;80;25913;-85
2022/06/12 04:37:15;;;;;;;19.07;16.75;;;;;;;17.11;84.41;101148.85;1742132;81;27541;-85
2022/06/12 04:39:44;;;;;;;17.30;15.25;;;;;;;17.26;84.19;101149.40;1725816;81;26022;-84
2022/06/12 04:42:15;;;;;;;21.60;15.90;;;;;;;17.42;84.22;101150.77;1735249;81;26017;-85
2022/06/12 04:44:41;;;;;;;;;;;;;;;17.57;84.86;101149.98;1724877;81;25794;-84
2022/06/12 04:47:13;;;;;;;15.43;13.60;;;;;;;17.72;84.89;101153.20;1729391;82;25704;-84
2022/06/12 04:49:40;;;;;;;18.60;12.65;;;;;;;17.85;84.62;101157.69;1724780;81;27449;-84
2022/06/12 04:52:10;;;;;;;17.17;13.00;;;;;;;18.01;84.73;101155.25;1723153;81;26552;-84
2022/06/12 04:54:40;;;;;;;19.00;11.33;;;;;;;18.18;84.80;101146.86;1733991;81;25879;-84
2022/06/12 04:57:09;;;;;;;14.05;10.48;;;;;;;18.32;83.94;101154.35;1734262;81;26583;-84
2022/06/12 04:59:37;;;;;;;13.05;10.75;;;;;;;18.44;84.04;101153.42;1720185;82;26068;-84
2022/06/12 05:02:04;;;;;;;13.75;10.00;;;;;;;18.60;84.05;101151.17;1716360;81;28577;-84
2022/06/12 05:04:32;;;;;;;13.93;10.82;;;;;;;18.68;83.32;101150.86;1723966;81;25788;-84
2022/06/12 05:06:59;;;;;;;14.70;10.98;;;;;;;18.78;83.74;101153.86;1704417;81;26536;-84
2022/06/12 05:09:30;;;;;;;11.88;9.80;;;;;;;18.87;83.61;101149.27;1728675;81;25841;-83
2022/06/12 05:11:57;;;;;;;12.47;11.18;;;;;;;18.95;82.82;101150.84;1725333;81;26520;-84
2022/06/12 05:14:24;;;;;;;14.18;10.45;;;;;;;19.01;82.91;101152.66;1730497;81;28720;-84
2022/06/12 05:16:55;;;;;;;15.45;10.68;;;;;;;19.05;82.79;101156.58;1737868;81;25945;-84
2022/06/12 05:19:26;;;;;;;13.78;10.13;;;;;;;19.06;82.74;101154.98;1732495;81;25909;-83
2022/06/12 05:21:53;;;;;;;12.70;9.63;;;;;;;19.11;82.34;101157.02;1734932;81;26019;-84
2022/06/12 05:24:20;;;;;;;9.60;8.70;;;;;;;19.16;81.90;101157.17;1736073;81;25922;-84
2022/06/12 05:26:48;;;;;;;10.70;8.23;;;;;;;19.20;81.62;101153.73;1725687;81;27613;-83
2022/06/12 05:29:25;;;;;;;10.68;8.60;;;;;;;19.28;81.46;101150.41;1731866;81;26342;-84
2022/06/12 05:31:53;;;;;;;8.93;8.00;;;;;;;19.35;81.36;101145.23;1732008;81;25981;-84
2022/06/12 05:34:19;;;;;;;8.65;7.85;;;;;;;19.42;80.95;101146.50;1737220;81;26589;-84
2022/06/12 05:36:46;;;;;;;9.95;7.83;;;;;;;19.46;80.49;101144.41;1724328;81;26551;-84
2022/06/12 05:39:13;;;;;;;11.30;8.20;;;;;;;19.50;80.16;101140.20;1730079;81;27437;-84
2022/06/12 05:41:40;;;;;;;9.35;7.92;;;;;;;19.57;80.12;101148.22;1731706;81;25821;-85
2022/06/12 05:44:07;;;;;;;10.23;8.03;;;;;;;19.62;80.19;101151.92;1733564;81;26135;-84
2022/06/12 05:46:34;;;;;;;12.35;8.33;;;;;;;19.67;79.71;101145.27;1720132;81;25785;-85
2022/06/12 05:49:01;;;;;;;14.53;8.55;;;;;;;19.72;79.13;101147.27;1733168;81;25989;-85
2022/06/12 05:51:27;;;;;;;11.03;7.70;;;;;;;19.78;78.78;101153.15;1702230;83;27465;-84
2022/06/12 05:53:53;;;;;;;15.48;7.60;;;;;;;19.90;78.60;101153.46;1710687;82;26080;-84
2022/06/12 05:56:23;;;;;;;9.80;7.75;;;;;;;20.03;78.09;101154.30;1740308;82;26294;-85
2022/06/12 05:58:49;;;;;;;8.13;6.53;;;;;;;20.12;77.74;101148.81;1740445;81;25781;-85
2022/06/12 06:01:19;;;;;;;10.23;6.97;;;;;;;20.27;76.97;101158.72;1734094;81;25568;-85
2022/06/12 06:03:47;;;;;;;7.78;6.30;;;;;;;20.37;76.04;101150.78;1739843;81;27425;-86
2022/06/12 06:06:22;;;;;;;10.10;6.75;;;;;;;20.46;76.19;101155.65;1712048;81;25976;-86
2022/06/12 06:08:49;;;;;;;7.42;6.60;;;;;;;20.60;75.69;101165.20;1733809;81;25797;-84
2022/06/12 06:11:15;;;;;;;9.58;6.60;;;;;;;20.78;75.80;101162.04;1735908;81;25825;-84
2022/06/12 06:13:42;;;;;;;9.33;5.85;;;;;;;20.92;75.42;101158.80;1731584;81;25980;-85
2022/06/12 06:16:08;;;;;;;8.00;5.55;;;;;;;21.05;75.77;101162.65;1733274;81;27430;-85
2022/06/12 06:18:40;;;;;;;8.43;5.37;;;;;;;21.17;74.49;101156.61;1727838;81;25853;-84
2022/06/12 06:21:09;;;;;;;7.17;4.92;;;;;;;21.27;74.55;101161.45;1729549;81;25962;-85
2022/06/12 06:23:36;;;;;;;8.05;5.45;;;;;;;21.40;73.02;101156.55;1730725;81;26576;-84
2022/06/12 06:26:03;;;;;;;6.95;5.20;;;;;;;21.59;72.93;101160.41;1734796;81;26357;-85
2022/06/12 06:28:29;;;;;;;8.78;4.90;;;;;;;21.78;73.28;101159.94;1731675;81;27598;-85
2022/06/12 06:30:56;;;;;;;7.00;4.50;;;;;;;21.96;72.15;101151.53;1734804;81;25887;-85
2022/06/12 06:33:23;;;;;;;8.35;4.55;;;;;;;22.17;72.49;101146.71;1734235;81;25914;-85
2022/06/12 06:35:49;;;;;;;8.15;3.98;;;;;;;22.31;70.83;101143.08;1740089;81;25826;-85
2022/06/12 06:38:18;;;;;;;7.33;3.95;;;;;;;22.45;69.70;101142.20;1730244;81;25782;-85
2022/06/12 06:40:46;;;;;;;4.78;3.80;;;;;;;22.54;69.19;101143.42;1737814;81;27441;-85
2022/06/12 06:43:13;;;;;;;6.05;3.87;;;;;;;22.61;68.42;101145.44;1734375;81;25661;-84
2022/06/12 06:48:27;;;;;;;10.75;4.22;;;;;;;22.76;67.40;101134.19;1707724;82;25887;-84
2022/06/12 06:50:55;;;;;;;4.67;3.20;;;;;;;22.87;67.34;101141.44;1703863;83;25803;-84
2022/06/12 06:53:21;;;;;;;6.92;3.85;;;;;;;22.90;67.04;101138.17;1714241;83;27452;-85
2022/06/12 06:55:49;;;;;;;5.03;3.35;;;;;;;22.93;66.35;101138.22;1695625;83;25972;-84
2022/06/12 06:58:21;;;;;;;4.78;3.60;;;;;;;23.00;66.53;101134.75;1702602;82;25575;-85
2022/06/12 07:00:49;;;;;;;6.40;3.05;;;;;;;23.12;66.25;101129.16;1694715;82;25811;-84
2022/06/12 07:03:16;;;;;;;5.12;3.20;;;;;;;23.29;65.88;101133.44;1712925;82;25695;-84
2022/06/12 07:05:46;;;;;;;7.47;3.50;;;;;;;23.39;64.61;101134.95;1684900;83;27541;-84
2022/06/12 07:08:14;;;;;;;4.72;3.45;;;;;;;23.39;63.50;101134.95;1691653;82;26588;-85
2022/06/12 07:10:42;;;;;;;4.45;3.17;;;;;;;23.50;64.15;101126.31;1694349;83;26523;-85
2022/06/12 07:13:09;;;;;;;6.62;3.50;;;;;;;23.63;63.40;101125.33;1703529;83;26746;-84
2022/06/12 07:15:37;;;;;;;4.67;3.20;;;;;;;23.75;63.48;101127.37;1708023;82;25872;-84
2022/06/12 07:18:07;;;;;;;4.80;3.30;;;;;;;23.85;62.77;101128.52;1701909;82;28153;-84
2022/06/12 07:20:38;;;;;;;5.37;3.10;;;;;;;23.85;62.68;101124.41;1704730;82;25958;-85
2022/06/12 07:23:07;;;;;;;5.95;3.33;;;;;;;23.94;62.92;101126.42;1716573;82;25276;-85
2022/06/12 07:25:39;;;;;;;5.87;3.30;;;;;;;23.98;62.36;101125.34;1701181;83;25894;-84
2022/06/12 07:28:06;;;;;;;4.37;3.15;;;;;;;23.98;61.07;101123.44;1719143;83;25840;-84
2022/06/12 07:30:32;;;;;;;3.75;3.05;;;;;;;24.05;62.00;101125.98;1731697;80;27601;-85
2022/06/12 07:32:59;;;;;;;3.45;3.15;;;;;;;24.20;61.74;101116.50;1717682;81;25745;-85
2022/06/12 07:35:25;;;;;;;4.87;2.95;;;;;;;24.25;61.31;101124.20;1725800;81;26628;-84
2022/06/12 07:37:52;;;;;;;5.58;3.20;;;;;;;24.29;60.59;101125.31;1748895;80;26152;-84
2022/06/12 07:40:23;;;;;;;6.45;3.12;;;;;;;24.34;59.72;101122.62;1741738;80;25879;-84
2022/06/12 07:42:50;;;;;;;6.20;3.12;;;;;;;24.43;60.38;101124.31;1723951;81;28417;-84
2022/06/12 07:45:17;;;;;;;7.35;3.50;;;;;;;24.50;59.57;101129.84;1723251;82;25305;-84
2022/06/12 07:47:43;;;;;;;4.85;3.25;;;;;;;24.55;58.67;101133.70;1727636;82;26139;-83
2022/06/12 07:50:11;;;;;;;4.58;3.60;;;;;;;24.58;59.98;101128.50;1682391;84;26990;-85
2022/06/12 07:52:40;;;;;;;4.60;3.60;;;;;;;24.69;59.72;101130.20;1730707;81;26418;-85
2022/06/12 07:55:09;;;;;;;9.53;3.80;;;;;;;24.72;59.32;101133.77;1746369;80;27455;-84
2022/06/12 07:57:38;;;;;;;9.03;4.25;;;;;;;24.50;58.42;101136.70;1704528;80;25851;-84
2022/06/12 08:00:07;;;;;;;4.08;3.58;;;;;;;24.25;58.91;101137.09;1714499;82;25338;-84
2022/06/12 08:02:36;;;;;;;6.30;3.80;;;;;;;24.06;59.35;101136.66;1730634;80;26210;-84
2022/06/12 08:05:04;;;;;;;5.92;3.80;;;;;;;23.93;60.12;101134.89;1735136;81;25924;-82
2022/06/12 08:07:30;;;;;;;6.28;3.85;;;;;;;23.72;59.11;101135.25;1741621;80;27001;-82
2022/06/12 08:09:57;;;;;;;5.72;4.10;;;;;;;23.48;59.47;101133.38;1749720;80;26155;-82
2022/06/12 08:12:23;;;;;;;6.35;4.65;;;;;;;23.27;60.38;101141.60;1747715;80;25791;-82
2022/06/12 08:14:49;;;;;;;7.28;5.05;;;;;;;23.08;60.81;101138.93;1728277;81;26580;-82
2022/06/12 08:17:16;;;;;;;8.98;4.60;;;;;;;22.92;61.46;101150.23;1739385;81;25790;-83
2022/06/12 08:22:26;;;;;;;8.78;5.50;;;;;;;22.64;62.46;101140.86;1740747;81;25915;-81
2022/06/12 08:24:53;;;;;;;11.10;5.87;;;;;;;22.54;62.85;101142.86;1739897;80;26539;-81
2022/06/12 08:27:19;;;;;;;12.00;6.30;;;;;;;22.52;63.10;101149.12;1731119;81;26721;-81
2022/06/12 08:29:46;;;;;;;11.03;5.80;;;;;;;22.50;63.49;101150.44;1713017;81;25891;-82
2022/06/12 08:32:19;;;;;;;13.20;6.00;;;;;;;22.46;63.08;101146.56;1712684;82;27429;-82
2022/06/12 08:34:51;;;;;;;8.70;5.30;;;;;;;22.44;63.46;101152.81;1717020;82;25771;-82
2022/06/12 08:37:23;;;;;;;8.63;5.35;;;;;;;22.41;63.76;101142.41;1721523;82;25799;-83
2022/06/12 08:39:49;;;;;;;7.90;5.55;;;;;;;22.44;64.33;101151.45;1724813;82;26296;-82
2022/06/12 08:42:33;;;;;;;6.25;5.12;;;;;;;22.45;64.89;101147.66;1717949;82;26102;-82
2022/06/12 08:45:23;;;;;;;7.58;5.33;;;;;;;22.55;65.09;101142.33;1715608;81;27471;-82
2022/06/12 08:48:01;;;;;;;7.53;6.45;;;;;;;22.55;64.22;101145.06;1723936;82;26012;-82
2022/06/12 08:50:48;;;;;;;7.60;5.62;;;;;;;22.46;64.76;101150.12;1725429;81;25762;-83
2022/06/12 08:53:55;;;;;;;8.00;5.55;;;;;;;22.43;64.49;101149.81;1721930;81;26310;-82
2022/06/12 08:56:42;;;;;;;7.58;6.00;;;;;;;22.41;64.75;101151.97;1721043;81;26152;-82
2022/06/12 08:59:34;;;;;;;9.43;6.60;;;;;;;22.36;64.25;101145.89;1707755;81;27450;-83
2022/06/12 09:02:07;;;;;;;7.65;5.87;;;;;;;22.30;64.53;101145.53;1723391;81;25862;-84
2022/06/12 09:04:34;;;;;;;8.08;6.12;;;;;;;22.28;64.91;101146.33;1706374;82;25345;-82
2022/06/12 09:07:27;;;;;;;7.67;5.72;;;;;;;22.29;64.96;101146.60;1734104;82;25852;-83
2022/06/12 09:09:59;;;;;;;7.22;5.83;;;;;;;22.29;65.06;101143.88;1732277;81;26201;-83
2022/06/12 09:12:40;;;;;;;7.50;5.87;;;;;;;22.28;65.51;101145.77;1722501;82;28305;-82
2022/06/12 09:15:24;;;;;;;10.78;6.50;;;;;;;22.25;65.60;101151.74;1712917;82;25881;-82
2022/06/12 09:18:14;;;;;;;6.05;5.45;;;;;;;22.27;65.83;101152.84;1719316;82;25374;-82
2022/06/12 09:21:00;;;;;;;8.00;5.90;;;;;;;22.23;65.72;101147.08;1727259;81;25948;-82
2022/06/12 09:23:53;;;;;;;10.75;6.20;;;;;;;22.21;66.60;101145.14;1709389;82;25837;-82
2022/06/12 09:26:44;;;;;;;9.45;5.92;;;;;;;22.16;65.91;101146.94;1711910;81;27471;-83
2022/06/12 09:29:28;;;;;;;7.12;6.12;;;;;;;22.04;66.20;101146.22;1710294;82;25832;-83
2022/06/12 09:32:12;;;;;;;11.93;5.90;;;;;;;21.98;66.44;101151.31;1712122;82;26686;-82
2022/06/12 09:35:04;;;;;;;7.15;6.45;;;;;;;21.88;66.65;101149.75;1710118;82;25803;-83
2022/06/12 09:40:34;;;;;;;6.75;6.10;;;;;;;21.76;67.30;101147.62;1693763;82;28724;-83
2022/06/12 09:43:30;;;;;;;11.12;6.40;;;;;;;21.66;67.52;101133.82;1710927;82;25942;-82
2022/06/12 09:46:28;;;;;;;7.95;6.28;;;;;;;21.61;67.84;101132.36;1667973;82;26042;-82
2022/06/12 09:49:18;;;;;;;13.45;7.10;;;;;;;21.61;68.30;101125.54;1713919;82;25776;-82
2022/06/12 09:52:11;;;;;;;10.60;6.85;;;;;;;21.65;68.85;101131.63;1709326;82;25839;-84
2022/06/12 09:54:54;;;;;;;10.03;6.35;;;;;;;21.75;69.10;101125.53;1703183;82;27472;-85
2022/06/12 09:57:51;;;;;;;9.88;6.83;;;;;;;21.82;69.25;101123.44;1709336;82;25769;-83
2022/06/12 10:00:23;;;;;;;10.53;6.65;;;;;;;21.93;70.17;101120.67;1710491;82;26613;-82
2022/06/12 10:03:13;;;;;;;10.58;7.45;;;;;;;22.01;69.96;101118.89;1707623;82;26648;-82
2022/06/12 10:06:01;;;;;;;9.03;7.03;;;;;;;22.06;69.29;101120.34;1674656;83;26025;-81
2022/06/12 10:08:39;;;;;;;9.28;7.03;;;;;;;22.11;68.97;101112.22;1697019;83;27515;-81
2022/06/12 10:11:40;;;;;;;7.70;6.90;;;;;;;22.17;69.35;101118.59;1706527;82;25925;-82
2022/06/12 10:14:17;;;;;;;10.10;8.48;;;;;;;22.24;68.30;101113.23;1712481;82;25909;-82
2022/06/12 10:17:05;;;;;;;9.43;7.08;;;;;;;22.31;68.61;101110.33;1705380;82;25834;-82
2022/06/12 10:19:49;;;;;;;8.55;6.95;;;;;;;22.38;68.35;101097.33;1691155;82;26179;-82
2022/06/12 10:22:30;;;;;;;9.38;7.15;;;;;;;22.49;68.78;101098.30;1697556;82;27491;-82
2022/06/12 10:25:00;;;;;;;8.10;7.03;;;;;;;22.59;68.34;101100.65;1715808;82;25530;-83
2022/06/12 10:27:49;;;;;;;11.80;7.35;;;;;;;22.68;67.78;101090.94;1718041;81;25371;-82
2022/06/12 10:30:41;;;;;;;8.20;5.90;;;;;;;22.75;67.40;101088.02;1743798;81;26844;-82
2022/06/12 10:33:35;;;;;;;11.33;5.95;;;;;;;22.91;67.86;101087.10;1748083;81;25769;-82
2022/06/12 10:36:05;;;;;;;10.58;6.03;;;;;;;23.05;66.55;101091.10;1753675;81;27440;-82
2022/06/12 10:38:36;;;;;;;9.03;6.00;;;;;;;23.06;66.39;101082.34;1751740;81;25845;-82
2022/06/12 10:41:25;;;;;;;13.00;6.37;;;;;;;23.16;66.03;101073.70;1736374;81;25742;-82
2022/06/12 10:43:56;;;;;;;8.78;5.60;;;;;;;23.18;65.01;101072.91;1740467;81;25927;-82
2022/06/12 10:46:32;;;;;;;7.65;5.85;;;;;;;23.23;65.45;101063.94;1655627;85;25430;-82
2022/06/12 10:49:15;;;;;;;9.60;5.40;;;;;;;23.30;65.19;101064.55;1691092;81;27440;-82
2022/06/12 10:51:44;;;;;;;6.10;5.10;;;;;;;23.35;65.03;101060.55;1689631;83;26554;-82
2022/06/12 10:54:21;;;;;;;5.42;4.92;;;;;;;23.41;65.66;101060.87;1702205;83;25902;-82
2022/06/12 10:57:15;;;;;;;7.50;5.10;;;;;;;23.52;65.01;101054.41;1727204;80;26773;-82
2022/06/12 10:59:56;;;;;;;7.40;5.17;;;;;;;23.62;64.62;101048.48;1730945;80;26471;-82
2022/06/12 11:03:09;;;;;;;10.50;4.67;;;;;;;23.68;64.12;101047.42;1706254;82;27441;-82
2022/06/12 11:06:16;;;;;;;10.03;4.60;;;;;;;23.81;63.28;101045.31;1704590;80;26685;-83
2022/06/12 11:12:33;;;;;;;8.63;4.65;;;;;;;23.88;62.71;101044.02;1677776;82;26602;-81
2022/06/12 11:15:33;;;;;;;8.80;4.85;;;;;;;23.97;62.99;101041.07;1705911;81;25948;-81
2022/06/12 11:18:21;;;;;;;6.87;4.30;;;;;;;24.10;62.82;101040.61;1711177;82;28848;-82
2022/06/12 11:21:02;;;;;;;5.80;4.22;;;;;;;24.25;62.61;101037.95;1684613;80;25807;-82
2022/06/12 11:23:51;;;;;;;7.05;4.17;;;;;;;24.35;61.43;101027.08;1755443;81;25803;-81
2022/06/12 11:26:28;;;;;;;7.67;4.28;;;;;;;24.43;60.86;101027.09;1741654;81;26788;-82
2022/06/12 11:29:23;;;;;;;10.88;3.70;;;;;;;24.56;61.81;101025.23;1751108;80;26473;-81
2022/06/12 11:32:19;;;;;;;5.08;3.08;;;;;;;24.76;60.68;101019.03;1725910;81;27629;-81
2022/06/12 11:35:01;;;;;;;4.10;2.75;;;;;;;24.84;59.48;101024.80;1754736;81;25839;-81
2022/06/12 11:38:06;;;;;;;4.75;2.90;;;;;;;24.88;58.26;101014.95;1725262;82;25762;-82
2022/06/12 11:40:53;;;;;;;4.60;3.58;;;;;;;24.98;56.64;101019.06;1728458;82;26899;-81
2022/06/12 11:43:43;;;;;;;4.87;3.75;;;;;;;25.07;55.60;101008.39;1736549;81;26036;-81
2022/06/12 11:46:32;;;;;;;4.70;2.92;;;;;;;25.18;55.73;101011.42;1735348;81;27459;-83
2022/06/12 11:49:15;;;;;;;4.95;3.00;;;;;;;25.25;55.45;101007.88;1721595;82;25803;-82
2022/06/12 11:51:56;;;;;;;3.00;2.70;;;;;;;25.30;55.14;101003.73;1718987;82;25824;-84
2022/06/12 11:54:59;;;;;;;5.50;2.92;;;;;;;25.33;55.28;100999.63;1672755;81;25790;-82
2022/06/12 11:57:40;;;;;;;4.55;3.20;;;;;;;25.40;55.13;100998.28;1731078;81;25421;-81
2022/06/12 12:00:33;;;;;;;4.60;2.92;;;;;;;25.51;55.02;100988.15;1751759;81;27458;-82
2022/06/12 12:03:52;;;;;;;3.62;2.67;;;;;;;25.59;54.13;100980.73;1699516;82;26503;-81
2022/06/12 12:06:45;;;;;;;4.80;2.25;;;;;;;25.67;54.27;100974.67;1724372;82;26521;-81
2022/06/12 12:09:51;;;;;;;5.00;2.60;;;;;;;25.78;53.87;100973.02;1715433;82;25937;-81
2022/06/12 12:12:23;;;;;;;4.40;2.80;;;;;;;25.87;53.06;100976.02;1723834;81;25281;-82
2022/06/12 12:14:51;;;;;;;6.33;2.60;;;;;;;25.86;53.16;100962.83;1724356;82;27418;-82
2022/06/12 12:17:25;;;;;;;6.55;2.58;;;;;;;25.99;52.20;100958.13;1761910;81;25775;-81
2022/06/12 12:20:15;;;;;;;2.70;2.10;;;;;;;26.09;51.81;100958.66;1727302;81;25875;-81